Portada
METAR-TAF:

METAR-TAF

Aeroports :

Briansk, Rússia

latitud: 53-15N, longitud: 034-19E, altitud: 217 m

Observació

L'informe es va fer fa 9 hores i 3 minuts, a les 15:00 UTC
Vent 10 kt del Sud/Sud-Oest
Temperatura -1°C
Humitat 86%
Pressió 1027 hPa
Visibilitat: 9000 m
Cel cobert a una alçada de 700 ft

METAR: UUBP 181500Z 20005MPS 9000 OVC007 M01/M03 Q1027 R34/CLRD70 NOSIG RMK QFE752/1003

Hora: 03:03 (00:03 UTC)

Pronòstic

L'informe es va fer fa 13 hores i 3 minuts, a les 11:00 UTC
Pronòstic vàlid del 18 a les 12 UTC al 18 a les 21 UTC
Vent 8 kt del Sud-Oest
Visibilitat: 6000 m
Cel cobert a una alçada de 700 ft
Temporalment
l' 18 a les 13 UTC al 18 a les 21 UTC
Visibilitat: 0600 m
a una alçada de 200 ft
boira gebradora

TAF: UUBP 181100Z 1812/1821 23004MPS 6000 OVC007 TEMPO 1813/1821 0600 FZFG VV002

Observacions i pronòstics meteorològics de més de 4000 aeroports (METAR i TAF).

Les estacions disponibles són els punts grocs i vermells al mapa.

Posi el ratolí al punt desitjat per veure el nom de l'estació.

Feu clic per veure les observacions i els pronòstics meteorològics.

Per canviar el mapa: feu clic els botons verds amb una creu de color negre per apropar; al botó verd amb un guió per allunyar la imatge; o en les fletxes verdes per a mapes adjacents.


METAR-TAF: